sensor_id;sensor_type;location;lat;lon;timestamp;P1;durP1;ratioP1;P2;durP2;ratioP2
45694;SDS011;31408;45.468;9.124;2023-07-29T00:00:42;7.18;;;3.25;;
45694;SDS011;31408;45.468;9.124;2023-07-29T00:03:08;7.80;;;3.25;;
45694;SDS011;31408;45.468;9.124;2023-07-29T00:05:34;6.25;;;2.80;;
45694;SDS011;31408;45.468;9.124;2023-07-29T00:08:00;4.10;;;2.70;;
45694;SDS011;31408;45.468;9.124;2023-07-29T00:10:26;5.25;;;2.85;;
45694;SDS011;31408;45.468;9.124;2023-07-29T00:12:52;10.32;;;2.80;;
45694;SDS011;31408;45.468;9.124;2023-07-29T00:15:17;4.80;;;2.85;;
45694;SDS011;31408;45.468;9.124;2023-07-29T00:17:43;8.00;;;2.97;;
45694;SDS011;31408;45.468;9.124;2023-07-29T00:20:08;7.68;;;3.38;;
45694;SDS011;31408;45.468;9.124;2023-07-29T00:22:34;5.40;;;2.78;;
45694;SDS011;31408;45.468;9.124;2023-07-29T00:24:59;5.70;;;3.40;;
45694;SDS011;31408;45.468;9.124;2023-07-29T00:27:25;6.25;;;3.53;;
45694;SDS011;31408;45.468;9.124;2023-07-29T00:29:51;4.55;;;2.67;;
45694;SDS011;31408;45.468;9.124;2023-07-29T00:32:16;4.28;;;2.63;;
45694;SDS011;31408;45.468;9.124;2023-07-29T00:34:44;5.60;;;2.33;;
45694;SDS011;31408;45.468;9.124;2023-07-29T00:37:10;9.05;;;4.15;;
45694;SDS011;31408;45.468;9.124;2023-07-29T00:39:41;6.53;;;2.75;;
45694;SDS011;31408;45.468;9.124;2023-07-29T00:42:08;4.50;;;2.78;;
45694;SDS011;31408;45.468;9.124;2023-07-29T00:44:34;4.18;;;3.05;;
45694;SDS011;31408;45.468;9.124;2023-07-29T00:47:00;8.05;;;3.58;;
45694;SDS011;31408;45.468;9.124;2023-07-29T00:49:28;4.47;;;2.08;;
45694;SDS011;31408;45.468;9.124;2023-07-29T00:51:53;6.32;;;2.95;;
45694;SDS011;31408;45.468;9.124;2023-07-29T00:54:19;4.10;;;2.65;;
45694;SDS011;31408;45.468;9.124;2023-07-29T00:56:44;5.78;;;2.63;;
45694;SDS011;31408;45.468;9.124;2023-07-29T00:59:11;8.05;;;3.58;;
45694;SDS011;31408;45.468;9.124;2023-07-29T01:01:37;6.90;;;3.20;;
45694;SDS011;31408;45.468;9.124;2023-07-29T01:04:02;16.83;;;3.58;;
45694;SDS011;31408;45.468;9.124;2023-07-29T01:17:03;7.05;;;3.40;;
45694;SDS011;31408;45.468;9.124;2023-07-29T01:22:04;7.55;;;2.92;;
45694;SDS011;31408;45.468;9.124;2023-07-29T01:24:29;12.63;;;3.97;;
45694;SDS011;31408;45.468;9.124;2023-07-29T01:26:55;7.95;;;3.25;;
45694;SDS011;31408;45.468;9.124;2023-07-29T01:29:20;4.47;;;3.17;;
45694;SDS011;31408;45.468;9.124;2023-07-29T01:31:46;6.32;;;3.13;;
45694;SDS011;31408;45.468;9.124;2023-07-29T01:34:26;5.88;;;3.03;;
45694;SDS011;31408;45.468;9.124;2023-07-29T01:36:55;7.07;;;3.08;;
45694;SDS011;31408;45.468;9.124;2023-07-29T01:39:22;8.75;;;3.65;;
45694;SDS011;31408;45.468;9.124;2023-07-29T01:41:48;10.77;;;4.28;;
45694;SDS011;31408;45.468;9.124;2023-07-29T01:44:14;5.40;;;3.08;;
45694;SDS011;31408;45.468;9.124;2023-07-29T01:46:40;6.45;;;3.28;;
45694;SDS011;31408;45.468;9.124;2023-07-29T01:49:06;9.43;;;3.58;;
45694;SDS011;31408;45.468;9.124;2023-07-29T01:51:31;5.82;;;3.45;;
45694;SDS011;31408;45.468;9.124;2023-07-29T01:53:57;6.68;;;3.38;;
45694;SDS011;31408;45.468;9.124;2023-07-29T01:56:25;7.03;;;3.33;;
45694;SDS011;31408;45.468;9.124;2023-07-29T01:58:53;9.27;;;3.33;;
45694;SDS011;31408;45.468;9.124;2023-07-29T02:01:19;8.88;;;3.15;;
45694;SDS011;31408;45.468;9.124;2023-07-29T02:03:44;9.82;;;3.40;;
45694;SDS011;31408;45.468;9.124;2023-07-29T02:06:10;4.45;;;3.13;;
45694;SDS011;31408;45.468;9.124;2023-07-29T02:08:35;5.38;;;3.28;;
45694;SDS011;31408;45.468;9.124;2023-07-29T02:11:01;4.93;;;2.95;;
45694;SDS011;31408;45.468;9.124;2023-07-29T02:13:27;5.50;;;2.95;;
45694;SDS011;31408;45.468;9.124;2023-07-29T02:15:52;6.88;;;3.80;;
45694;SDS011;31408;45.468;9.124;2023-07-29T02:18:18;4.88;;;3.42;;
45694;SDS011;31408;45.468;9.124;2023-07-29T02:20:43;6.65;;;3.40;;
45694;SDS011;31408;45.468;9.124;2023-07-29T02:23:14;3.47;;;2.55;;
45694;SDS011;31408;45.468;9.124;2023-07-29T02:25:41;5.28;;;3.85;;
45694;SDS011;31408;45.468;9.124;2023-07-29T02:28:06;9.20;;;3.35;;
45694;SDS011;31408;45.468;9.124;2023-07-29T02:30:32;9.38;;;3.92;;
45694;SDS011;31408;45.468;9.124;2023-07-29T02:32:57;5.65;;;3.20;;
45694;SDS011;31408;45.468;9.124;2023-07-29T02:35:22;8.73;;;4.20;;
45694;SDS011;31408;45.468;9.124;2023-07-29T02:37:48;6.05;;;3.85;;
45694;SDS011;31408;45.468;9.124;2023-07-29T02:40:13;9.30;;;3.78;;
45694;SDS011;31408;45.468;9.124;2023-07-29T02:42:39;9.48;;;3.63;;
45694;SDS011;31408;45.468;9.124;2023-07-29T02:45:05;5.82;;;3.65;;
45694;SDS011;31408;45.468;9.124;2023-07-29T02:47:37;8.43;;;3.72;;
45694;SDS011;31408;45.468;9.124;2023-07-29T02:50:03;5.97;;;3.85;;
45694;SDS011;31408;45.468;9.124;2023-07-29T02:52:28;7.50;;;3.42;;
45694;SDS011;31408;45.468;9.124;2023-07-29T02:54:54;6.10;;;3.35;;
45694;SDS011;31408;45.468;9.124;2023-07-29T02:57:19;4.80;;;3.05;;
45694;SDS011;31408;45.468;9.124;2023-07-29T02:59:45;9.20;;;3.45;;
45694;SDS011;31408;45.468;9.124;2023-07-29T03:02:11;9.45;;;3.58;;
45694;SDS011;31408;45.468;9.124;2023-07-29T03:04:36;7.78;;;3.28;;
45694;SDS011;31408;45.468;9.124;2023-07-29T03:07:02;7.78;;;3.33;;
45694;SDS011;31408;45.468;9.124;2023-07-29T03:09:28;4.30;;;3.10;;
45694;SDS011;31408;45.468;9.124;2023-07-29T03:11:53;7.10;;;3.58;;
45694;SDS011;31408;45.468;9.124;2023-07-29T03:14:20;5.10;;;3.28;;
45694;SDS011;31408;45.468;9.124;2023-07-29T03:16:46;8.93;;;3.35;;
45694;SDS011;31408;45.468;9.124;2023-07-29T03:19:12;7.53;;;3.33;;
45694;SDS011;31408;45.468;9.124;2023-07-29T03:21:38;7.07;;;3.63;;
45694;SDS011;31408;45.468;9.124;2023-07-29T03:24:03;5.28;;;3.30;;
45694;SDS011;31408;45.468;9.124;2023-07-29T03:26:29;4.45;;;3.13;;
45694;SDS011;31408;45.468;9.124;2023-07-29T03:28:54;6.38;;;3.00;;
45694;SDS011;31408;45.468;9.124;2023-07-29T03:31:20;7.78;;;3.70;;
45694;SDS011;31408;45.468;9.124;2023-07-29T03:33:45;4.65;;;3.22;;
45694;SDS011;31408;45.468;9.124;2023-07-29T03:36:11;4.85;;;3.30;;
45694;SDS011;31408;45.468;9.124;2023-07-29T03:38:36;11.02;;;3.20;;
45694;SDS011;31408;45.468;9.124;2023-07-29T03:41:06;4.88;;;3.22;;
45694;SDS011;31408;45.468;9.124;2023-07-29T03:43:33;7.50;;;3.78;;
45694;SDS011;31408;45.468;9.124;2023-07-29T03:46:00;8.18;;;3.58;;
45694;SDS011;31408;45.468;9.124;2023-07-29T03:48:26;6.43;;;3.78;;
45694;SDS011;31408;45.468;9.124;2023-07-29T03:50:52;8.70;;;3.80;;
45694;SDS011;31408;45.468;9.124;2023-07-29T03:53:17;8.38;;;3.05;;
45694;SDS011;31408;45.468;9.124;2023-07-29T03:55:43;12.82;;;4.18;;
45694;SDS011;31408;45.468;9.124;2023-07-29T03:58:09;6.35;;;2.83;;
45694;SDS011;31408;45.468;9.124;2023-07-29T04:00:34;4.10;;;2.88;;
45694;SDS011;31408;45.468;9.124;2023-07-29T04:03:00;5.75;;;3.20;;
45694;SDS011;31408;45.468;9.124;2023-07-29T04:05:25;6.82;;;3.13;;
45694;SDS011;31408;45.468;9.124;2023-07-29T04:07:50;5.30;;;2.95;;
45694;SDS011;31408;45.468;9.124;2023-07-29T04:10:17;6.53;;;2.83;;
45694;SDS011;31408;45.468;9.124;2023-07-29T04:12:43;9.85;;;3.40;;
45694;SDS011;31408;45.468;9.124;2023-07-29T04:15:08;4.00;;;2.97;;
45694;SDS011;31408;45.468;9.124;2023-07-29T04:17:34;10.90;;;3.35;;
45694;SDS011;31408;45.468;9.124;2023-07-29T04:19:59;6.07;;;3.03;;
45694;SDS011;31408;45.468;9.124;2023-07-29T04:22:31;7.05;;;3.40;;
45694;SDS011;31408;45.468;9.124;2023-07-29T04:24:56;7.95;;;3.65;;
45694;SDS011;31408;45.468;9.124;2023-07-29T04:27:22;4.20;;;2.90;;
45694;SDS011;31408;45.468;9.124;2023-07-29T04:29:47;8.38;;;4.05;;
45694;SDS011;31408;45.468;9.124;2023-07-29T04:32:13;5.72;;;3.30;;
45694;SDS011;31408;45.468;9.124;2023-07-29T04:34:41;8.57;;;3.25;;
45694;SDS011;31408;45.468;9.124;2023-07-29T04:37:06;5.28;;;3.40;;
45694;SDS011;31408;45.468;9.124;2023-07-29T04:39:32;5.13;;;3.20;;
45694;SDS011;31408;45.468;9.124;2023-07-29T04:41:58;8.00;;;3.92;;
45694;SDS011;31408;45.468;9.124;2023-07-29T04:44:24;10.23;;;4.22;;
45694;SDS011;31408;45.468;9.124;2023-07-29T04:46:49;7.22;;;3.90;;
45694;SDS011;31408;45.468;9.124;2023-07-29T04:49:15;11.82;;;3.85;;
45694;SDS011;31408;45.468;9.124;2023-07-29T04:51:40;8.75;;;3.20;;
45694;SDS011;31408;45.468;9.124;2023-07-29T04:54:06;7.07;;;4.05;;
45694;SDS011;31408;45.468;9.124;2023-07-29T04:56:31;7.50;;;3.20;;
45694;SDS011;31408;45.468;9.124;2023-07-29T04:58:57;7.20;;;3.83;;
45694;SDS011;31408;45.468;9.124;2023-07-29T05:01:22;8.30;;;3.72;;
45694;SDS011;31408;45.468;9.124;2023-07-29T05:03:48;7.28;;;4.95;;
45694;SDS011;31408;45.468;9.124;2023-07-29T05:06:13;6.55;;;3.28;;
45694;SDS011;31408;45.468;9.124;2023-07-29T05:08:39;8.20;;;3.83;;
45694;SDS011;31408;45.468;9.124;2023-07-29T05:11:04;6.30;;;3.17;;
45694;SDS011;31408;45.468;9.124;2023-07-29T05:13:30;10.10;;;3.88;;
45694;SDS011;31408;45.468;9.124;2023-07-29T05:15:55;6.15;;;3.30;;
45694;SDS011;31408;45.468;9.124;2023-07-29T05:18:21;10.95;;;3.63;;
45694;SDS011;31408;45.468;9.124;2023-07-29T05:20:47;13.45;;;4.25;;
45694;SDS011;31408;45.468;9.124;2023-07-29T05:23:13;6.25;;;3.20;;
45694;SDS011;31408;45.468;9.124;2023-07-29T05:25:38;8.50;;;3.78;;
45694;SDS011;31408;45.468;9.124;2023-07-29T05:28:04;6.70;;;2.95;;
45694;SDS011;31408;45.468;9.124;2023-07-29T05:30:29;5.00;;;2.78;;
45694;SDS011;31408;45.468;9.124;2023-07-29T05:32:59;11.25;;;3.47;;
45694;SDS011;31408;45.468;9.124;2023-07-29T05:35:25;3.40;;;2.83;;
45694;SDS011;31408;45.468;9.124;2023-07-29T05:37:51;6.45;;;2.53;;
45694;SDS011;31408;45.468;9.124;2023-07-29T05:40:16;3.92;;;2.50;;
45694;SDS011;31408;45.468;9.124;2023-07-29T05:42:42;4.35;;;2.50;;
45694;SDS011;31408;45.468;9.124;2023-07-29T05:45:10;12.27;;;2.72;;
45694;SDS011;31408;45.468;9.124;2023-07-29T05:47:35;7.20;;;2.53;;
45694;SDS011;31408;45.468;9.124;2023-07-29T05:50:04;7.57;;;2.83;;
45694;SDS011;31408;45.468;9.124;2023-07-29T05:52:31;5.55;;;2.65;;
45694;SDS011;31408;45.468;9.124;2023-07-29T05:54:56;4.35;;;2.47;;
45694;SDS011;31408;45.468;9.124;2023-07-29T05:57:22;4.53;;;1.95;;
45694;SDS011;31408;45.468;9.124;2023-07-29T05:59:47;5.75;;;2.17;;
45694;SDS011;31408;45.468;9.124;2023-07-29T06:02:13;10.43;;;2.35;;
45694;SDS011;31408;45.468;9.124;2023-07-29T06:04:39;4.60;;;2.08;;
45694;SDS011;31408;45.468;9.124;2023-07-29T06:07:04;10.07;;;2.58;;
45694;SDS011;31408;45.468;9.124;2023-07-29T06:09:30;5.63;;;2.70;;
45694;SDS011;31408;45.468;9.124;2023-07-29T06:11:56;5.10;;;2.17;;
45694;SDS011;31408;45.468;9.124;2023-07-29T06:14:21;8.40;;;3.53;;
45694;SDS011;31408;45.468;9.124;2023-07-29T06:16:47;6.40;;;2.60;;
45694;SDS011;31408;45.468;9.124;2023-07-29T06:19:12;3.70;;;1.98;;
45694;SDS011;31408;45.468;9.124;2023-07-29T06:21:38;6.38;;;2.33;;
45694;SDS011;31408;45.468;9.124;2023-07-29T06:24:04;8.30;;;2.15;;
45694;SDS011;31408;45.468;9.124;2023-07-29T06:26:29;4.63;;;2.33;;
45694;SDS011;31408;45.468;9.124;2023-07-29T06:28:55;4.28;;;2.05;;
45694;SDS011;31408;45.468;9.124;2023-07-29T06:31:20;4.78;;;1.88;;
45694;SDS011;31408;45.468;9.124;2023-07-29T06:33:45;6.25;;;1.92;;
45694;SDS011;31408;45.468;9.124;2023-07-29T06:36:11;3.50;;;1.65;;
45694;SDS011;31408;45.468;9.124;2023-07-29T06:38:37;5.28;;;1.85;;
45694;SDS011;31408;45.468;9.124;2023-07-29T06:41:03;5.22;;;1.98;;
45694;SDS011;31408;45.468;9.124;2023-07-29T06:43:29;8.23;;;3.50;;
45694;SDS011;31408;45.468;9.124;2023-07-29T06:45:55;3.53;;;2.13;;
45694;SDS011;31408;45.468;9.124;2023-07-29T06:48:20;5.30;;;2.08;;
45694;SDS011;31408;45.468;9.124;2023-07-29T06:50:46;4.45;;;2.15;;
45694;SDS011;31408;45.468;9.124;2023-07-29T06:53:11;2.78;;;1.70;;
45694;SDS011;31408;45.468;9.124;2023-07-29T06:55:37;2.83;;;2.00;;
45694;SDS011;31408;45.468;9.124;2023-07-29T06:58:02;4.43;;;1.73;;
45694;SDS011;31408;45.468;9.124;2023-07-29T07:00:28;2.70;;;1.80;;
45694;SDS011;31408;45.468;9.124;2023-07-29T07:02:53;2.38;;;2.17;;
45694;SDS011;31408;45.468;9.124;2023-07-29T07:05:19;6.28;;;2.70;;
45694;SDS011;31408;45.468;9.124;2023-07-29T07:07:45;5.22;;;1.85;;
45694;SDS011;31408;45.468;9.124;2023-07-29T07:10:10;4.03;;;1.70;;
45694;SDS011;31408;45.468;9.124;2023-07-29T07:12:36;5.47;;;1.83;;
45694;SDS011;31408;45.468;9.124;2023-07-29T07:15:01;4.10;;;2.20;;
45694;SDS011;31408;45.468;9.124;2023-07-29T07:17:27;5.18;;;1.77;;
45694;SDS011;31408;45.468;9.124;2023-07-29T07:19:52;2.90;;;2.10;;
45694;SDS011;31408;45.468;9.124;2023-07-29T07:22:18;4.35;;;1.63;;
45694;SDS011;31408;45.468;9.124;2023-07-29T07:24:44;5.43;;;1.83;;
45694;SDS011;31408;45.468;9.124;2023-07-29T07:27:09;3.95;;;2.00;;
45694;SDS011;31408;45.468;9.124;2023-07-29T07:29:35;6.05;;;2.03;;
45694;SDS011;31408;45.468;9.124;2023-07-29T07:32:00;5.50;;;1.90;;
45694;SDS011;31408;45.468;9.124;2023-07-29T07:34:25;4.53;;;2.38;;
45694;SDS011;31408;45.468;9.124;2023-07-29T07:36:51;2.90;;;1.83;;
45694;SDS011;31408;45.468;9.124;2023-07-29T07:39:17;3.40;;;1.60;;
45694;SDS011;31408;45.468;9.124;2023-07-29T07:41:42;2.58;;;2.05;;
45694;SDS011;31408;45.468;9.124;2023-07-29T07:44:07;4.00;;;1.88;;
45694;SDS011;31408;45.468;9.124;2023-07-29T07:46:33;5.38;;;2.45;;
45694;SDS011;31408;45.468;9.124;2023-07-29T07:48:58;4.97;;;2.00;;
45694;SDS011;31408;45.468;9.124;2023-07-29T07:51:24;8.90;;;2.95;;
45694;SDS011;31408;45.468;9.124;2023-07-29T07:53:49;5.85;;;1.80;;
45694;SDS011;31408;45.468;9.124;2023-07-29T07:56:15;3.42;;;1.88;;
45694;SDS011;31408;45.468;9.124;2023-07-29T07:58:40;3.67;;;1.80;;
45694;SDS011;31408;45.468;9.124;2023-07-29T08:01:06;4.72;;;1.85;;
45694;SDS011;31408;45.468;9.124;2023-07-29T08:03:33;3.53;;;2.03;;
45694;SDS011;31408;45.468;9.124;2023-07-29T08:05:58;10.20;;;1.70;;
45694;SDS011;31408;45.468;9.124;2023-07-29T08:08:27;5.43;;;2.47;;
45694;SDS011;31408;45.468;9.124;2023-07-29T08:10:53;4.68;;;2.10;;
45694;SDS011;31408;45.468;9.124;2023-07-29T08:13:20;5.00;;;1.70;;
45694;SDS011;31408;45.468;9.124;2023-07-29T08:15:49;3.92;;;2.13;;
45694;SDS011;31408;45.468;9.124;2023-07-29T08:18:16;8.60;;;2.38;;
45694;SDS011;31408;45.468;9.124;2023-07-29T08:20:50;5.20;;;1.88;;
45694;SDS011;31408;45.468;9.124;2023-07-29T08:23:20;4.43;;;1.92;;
45694;SDS011;31408;45.468;9.124;2023-07-29T08:25:51;2.22;;;1.80;;
45694;SDS011;31408;45.468;9.124;2023-07-29T08:28:17;6.35;;;3.35;;
45694;SDS011;31408;45.468;9.124;2023-07-29T08:30:43;3.30;;;2.15;;
45694;SDS011;31408;45.468;9.124;2023-07-29T08:33:08;6.20;;;1.85;;
45694;SDS011;31408;45.468;9.124;2023-07-29T08:35:33;4.78;;;1.77;;
45694;SDS011;31408;45.468;9.124;2023-07-29T08:37:59;5.80;;;1.92;;
45694;SDS011;31408;45.468;9.124;2023-07-29T08:40:25;6.25;;;1.83;;
45694;SDS011;31408;45.468;9.124;2023-07-29T08:42:53;3.70;;;1.75;;
45694;SDS011;31408;45.468;9.124;2023-07-29T08:45:20;4.35;;;2.15;;
45694;SDS011;31408;45.468;9.124;2023-07-29T08:47:46;4.55;;;1.88;;
45694;SDS011;31408;45.468;9.124;2023-07-29T08:50:12;7.47;;;2.58;;
45694;SDS011;31408;45.468;9.124;2023-07-29T08:52:38;4.95;;;2.00;;
45694;SDS011;31408;45.468;9.124;2023-07-29T08:55:04;8.55;;;2.83;;
45694;SDS011;31408;45.468;9.124;2023-07-29T08:57:30;7.68;;;2.63;;
45694;SDS011;31408;45.468;9.124;2023-07-29T08:59:55;7.55;;;2.92;;
45694;SDS011;31408;45.468;9.124;2023-07-29T09:02:21;3.13;;;2.00;;
45694;SDS011;31408;45.468;9.124;2023-07-29T09:04:47;5.00;;;2.22;;
45694;SDS011;31408;45.468;9.124;2023-07-29T09:07:12;4.97;;;2.30;;
45694;SDS011;31408;45.468;9.124;2023-07-29T09:09:38;7.30;;;2.42;;
45694;SDS011;31408;45.468;9.124;2023-07-29T09:12:04;4.43;;;1.70;;
45694;SDS011;31408;45.468;9.124;2023-07-29T09:14:30;5.50;;;2.10;;
45694;SDS011;31408;45.468;9.124;2023-07-29T09:16:55;9.43;;;2.90;;
45694;SDS011;31408;45.468;9.124;2023-07-29T09:19:21;3.38;;;1.83;;
45694;SDS011;31408;45.468;9.124;2023-07-29T09:21:50;6.97;;;2.33;;
45694;SDS011;31408;45.468;9.124;2023-07-29T09:24:16;7.22;;;2.20;;
45694;SDS011;31408;45.468;9.124;2023-07-29T09:26:50;6.03;;;2.40;;
45694;SDS011;31408;45.468;9.124;2023-07-29T09:29:15;4.93;;;1.92;;
45694;SDS011;31408;45.468;9.124;2023-07-29T09:31:41;7.60;;;2.17;;
45694;SDS011;31408;45.468;9.124;2023-07-29T09:34:06;3.28;;;1.67;;
45694;SDS011;31408;45.468;9.124;2023-07-29T09:36:32;5.68;;;2.20;;
45694;SDS011;31408;45.468;9.124;2023-07-29T09:38:58;1.60;;;1.23;;
45694;SDS011;31408;45.468;9.124;2023-07-29T09:41:25;11.52;;;2.72;;
45694;SDS011;31408;45.468;9.124;2023-07-29T09:44:10;4.72;;;1.88;;
45694;SDS011;31408;45.468;9.124;2023-07-29T09:46:36;4.32;;;2.25;;
45694;SDS011;31408;45.468;9.124;2023-07-29T09:49:03;5.88;;;1.88;;
45694;SDS011;31408;45.468;9.124;2023-07-29T09:51:30;2.50;;;1.88;;
45694;SDS011;31408;45.468;9.124;2023-07-29T09:53:55;6.45;;;2.25;;
45694;SDS011;31408;45.468;9.124;2023-07-29T09:56:24;2.83;;;1.77;;
45694;SDS011;31408;45.468;9.124;2023-07-29T09:58:57;3.13;;;1.92;;
45694;SDS011;31408;45.468;9.124;2023-07-29T10:01:23;4.05;;;2.38;;
45694;SDS011;31408;45.468;9.124;2023-07-29T10:03:49;8.00;;;2.58;;
45694;SDS011;31408;45.468;9.124;2023-07-29T10:06:14;7.22;;;2.28;;
45694;SDS011;31408;45.468;9.124;2023-07-29T10:08:40;5.15;;;1.95;;
45694;SDS011;31408;45.468;9.124;2023-07-29T10:11:08;5.07;;;2.08;;
45694;SDS011;31408;45.468;9.124;2023-07-29T10:13:34;6.45;;;2.33;;
45694;SDS011;31408;45.468;9.124;2023-07-29T10:16:00;2.13;;;1.92;;
45694;SDS011;31408;45.468;9.124;2023-07-29T10:18:29;6.30;;;2.80;;
45694;SDS011;31408;45.468;9.124;2023-07-29T10:20:59;8.75;;;2.63;;
45694;SDS011;31408;45.468;9.124;2023-07-29T10:23:26;6.10;;;2.88;;
45694;SDS011;31408;45.468;9.124;2023-07-29T10:26:03;8.45;;;1.98;;
45694;SDS011;31408;45.468;9.124;2023-07-29T10:28:30;16.25;;;3.47;;
45694;SDS011;31408;45.468;9.124;2023-07-29T10:30:57;7.65;;;2.30;;
45694;SDS011;31408;45.468;9.124;2023-07-29T10:33:23;4.45;;;1.70;;
45694;SDS011;31408;45.468;9.124;2023-07-29T10:35:49;9.32;;;2.40;;
45694;SDS011;31408;45.468;9.124;2023-07-29T10:38:15;4.38;;;1.58;;
45694;SDS011;31408;45.468;9.124;2023-07-29T10:40:49;5.55;;;2.05;;
45694;SDS011;31408;45.468;9.124;2023-07-29T10:43:23;5.63;;;1.90;;
45694;SDS011;31408;45.468;9.124;2023-07-29T10:45:52;4.68;;;2.28;;
45694;SDS011;31408;45.468;9.124;2023-07-29T10:53:55;3.88;;;1.73;;
45694;SDS011;31408;45.468;9.124;2023-07-29T10:56:26;5.95;;;1.88;;
45694;SDS011;31408;45.468;9.124;2023-07-29T10:58:54;7.97;;;2.17;;
45694;SDS011;31408;45.468;9.124;2023-07-29T11:01:28;5.03;;;2.03;;
45694;SDS011;31408;45.468;9.124;2023-07-29T11:15:03;3.65;;;2.40;;
45694;SDS011;31408;45.468;9.124;2023-07-29T11:17:34;2.67;;;1.70;;
45694;SDS011;31408;45.468;9.124;2023-07-29T11:20:00;4.72;;;2.28;;
45694;SDS011;31408;45.468;9.124;2023-07-29T11:22:26;4.43;;;2.55;;
45694;SDS011;31408;45.468;9.124;2023-07-29T11:24:51;5.03;;;1.88;;
45694;SDS011;31408;45.468;9.124;2023-07-29T11:27:17;4.68;;;1.80;;
45694;SDS011;31408;45.468;9.124;2023-07-29T11:29:43;2.97;;;2.05;;
45694;SDS011;31408;45.468;9.124;2023-07-29T11:32:09;3.85;;;1.88;;
45694;SDS011;31408;45.468;9.124;2023-07-29T11:34:34;6.45;;;2.38;;
45694;SDS011;31408;45.468;9.124;2023-07-29T11:37:00;5.30;;;2.22;;
45694;SDS011;31408;45.468;9.124;2023-07-29T11:39:25;2.65;;;1.88;;
45694;SDS011;31408;45.468;9.124;2023-07-29T11:41:51;6.43;;;1.98;;
45694;SDS011;31408;45.468;9.124;2023-07-29T11:44:17;4.18;;;2.05;;
45694;SDS011;31408;45.468;9.124;2023-07-29T11:46:43;5.90;;;2.05;;
45694;SDS011;31408;45.468;9.124;2023-07-29T11:49:08;6.40;;;2.13;;
45694;SDS011;31408;45.468;9.124;2023-07-29T11:51:34;5.15;;;2.00;;
45694;SDS011;31408;45.468;9.124;2023-07-29T11:54:00;7.05;;;2.63;;
45694;SDS011;31408;45.468;9.124;2023-07-29T11:56:25;4.93;;;1.80;;
45694;SDS011;31408;45.468;9.124;2023-07-29T11:58:51;3.20;;;2.15;;
45694;SDS011;31408;45.468;9.124;2023-07-29T12:01:16;7.35;;;3.15;;
45694;SDS011;31408;45.468;9.124;2023-07-29T12:03:42;4.35;;;1.98;;
45694;SDS011;31408;45.468;9.124;2023-07-29T12:06:08;3.28;;;1.88;;
45694;SDS011;31408;45.468;9.124;2023-07-29T12:08:33;4.65;;;2.13;;
45694;SDS011;31408;45.468;9.124;2023-07-29T12:10:59;5.00;;;2.28;;
45694;SDS011;31408;45.468;9.124;2023-07-29T12:13:24;4.43;;;2.15;;
45694;SDS011;31408;45.468;9.124;2023-07-29T12:15:50;3.05;;;2.15;;
45694;SDS011;31408;45.468;9.124;2023-07-29T12:18:16;2.83;;;2.10;;
45694;SDS011;31408;45.468;9.124;2023-07-29T12:20:41;2.83;;;2.20;;
45694;SDS011;31408;45.468;9.124;2023-07-29T12:23:07;4.78;;;2.25;;
45694;SDS011;31408;45.468;9.124;2023-07-29T12:25:33;3.53;;;1.88;;
45694;SDS011;31408;45.468;9.124;2023-07-29T12:28:08;2.10;;;1.70;;
45694;SDS011;31408;45.468;9.124;2023-07-29T12:30:33;4.13;;;2.10;;
45694;SDS011;31408;45.468;9.124;2023-07-29T12:32:59;4.53;;;2.15;;
45694;SDS011;31408;45.468;9.124;2023-07-29T12:35:24;5.38;;;2.13;;
45694;SDS011;31408;45.468;9.124;2023-07-29T12:38:00;6.43;;;1.80;;
45694;SDS011;31408;45.468;9.124;2023-07-29T12:40:25;3.95;;;2.33;;
45694;SDS011;31408;45.468;9.124;2023-07-29T12:42:51;5.07;;;1.98;;
45694;SDS011;31408;45.468;9.124;2023-07-29T12:45:17;6.55;;;2.28;;
45694;SDS011;31408;45.468;9.124;2023-07-29T12:47:43;4.63;;;2.03;;
45694;SDS011;31408;45.468;9.124;2023-07-29T12:50:09;4.65;;;1.70;;
45694;SDS011;31408;45.468;9.124;2023-07-29T12:52:34;5.50;;;2.35;;
45694;SDS011;31408;45.468;9.124;2023-07-29T12:55:00;5.53;;;2.00;;
45694;SDS011;31408;45.468;9.124;2023-07-29T12:57:25;7.55;;;2.70;;
45694;SDS011;31408;45.468;9.124;2023-07-29T12:59:51;6.25;;;2.08;;
45694;SDS011;31408;45.468;9.124;2023-07-29T13:02:16;4.30;;;2.45;;
45694;SDS011;31408;45.468;9.124;2023-07-29T13:04:41;5.13;;;1.92;;
45694;SDS011;31408;45.468;9.124;2023-07-29T13:07:07;5.72;;;1.92;;
45694;SDS011;31408;45.468;9.124;2023-07-29T13:09:32;6.88;;;2.95;;
45694;SDS011;31408;45.468;9.124;2023-07-29T13:11:58;4.35;;;2.08;;
45694;SDS011;31408;45.468;9.124;2023-07-29T13:14:23;4.03;;;2.75;;
45694;SDS011;31408;45.468;9.124;2023-07-29T13:16:51;6.80;;;2.40;;
45694;SDS011;31408;45.468;9.124;2023-07-29T13:19:18;8.10;;;2.58;;
45694;SDS011;31408;45.468;9.124;2023-07-29T13:21:43;2.35;;;1.90;;
45694;SDS011;31408;45.468;9.124;2023-07-29T13:24:09;5.43;;;1.80;;
45694;SDS011;31408;45.468;9.124;2023-07-29T13:26:34;4.57;;;2.00;;
45694;SDS011;31408;45.468;9.124;2023-07-29T13:29:00;6.65;;;2.47;;
45694;SDS011;31408;45.468;9.124;2023-07-29T13:31:26;8.43;;;2.20;;
45694;SDS011;31408;45.468;9.124;2023-07-29T13:33:51;3.78;;;2.25;;
45694;SDS011;31408;45.468;9.124;2023-07-29T13:36:16;3.10;;;2.13;;
45694;SDS011;31408;45.468;9.124;2023-07-29T13:38:42;2.78;;;1.77;;
45694;SDS011;31408;45.468;9.124;2023-07-29T13:41:07;5.53;;;2.10;;
45694;SDS011;31408;45.468;9.124;2023-07-29T13:43:33;4.15;;;1.85;;
45694;SDS011;31408;45.468;9.124;2023-07-29T13:45:58;4.50;;;2.10;;
45694;SDS011;31408;45.468;9.124;2023-07-29T13:48:24;5.10;;;2.10;;
45694;SDS011;31408;45.468;9.124;2023-07-29T13:50:50;7.32;;;2.40;;
45694;SDS011;31408;45.468;9.124;2023-07-29T13:53:16;5.55;;;2.78;;
45694;SDS011;31408;45.468;9.124;2023-07-29T13:55:42;3.45;;;2.40;;
45694;SDS011;31408;45.468;9.124;2023-07-29T13:58:07;3.33;;;1.98;;
45694;SDS011;31408;45.468;9.124;2023-07-29T14:00:33;6.72;;;2.35;;
45694;SDS011;31408;45.468;9.124;2023-07-29T14:02:58;5.88;;;2.22;;
45694;SDS011;31408;45.468;9.124;2023-07-29T14:05:23;2.58;;;1.88;;
45694;SDS011;31408;45.468;9.124;2023-07-29T14:07:49;4.75;;;2.55;;
45694;SDS011;31408;45.468;9.124;2023-07-29T14:10:14;2.55;;;1.90;;
45694;SDS011;31408;45.468;9.124;2023-07-29T14:12:40;3.45;;;2.17;;
45694;SDS011;31408;45.468;9.124;2023-07-29T14:15:06;4.72;;;1.98;;
45694;SDS011;31408;45.468;9.124;2023-07-29T14:17:31;3.20;;;2.20;;
45694;SDS011;31408;45.468;9.124;2023-07-29T14:19:57;3.85;;;2.22;;
45694;SDS011;31408;45.468;9.124;2023-07-29T14:22:22;5.43;;;2.58;;
45694;SDS011;31408;45.468;9.124;2023-07-29T14:24:48;7.32;;;2.60;;
45694;SDS011;31408;45.468;9.124;2023-07-29T14:27:13;5.75;;;1.92;;
45694;SDS011;31408;45.468;9.124;2023-07-29T14:29:41;3.45;;;2.30;;
45694;SDS011;31408;45.468;9.124;2023-07-29T14:32:06;7.05;;;2.58;;
45694;SDS011;31408;45.468;9.124;2023-07-29T14:34:32;5.63;;;2.22;;
45694;SDS011;31408;45.468;9.124;2023-07-29T14:36:57;6.22;;;2.15;;
45694;SDS011;31408;45.468;9.124;2023-07-29T14:39:23;4.15;;;2.33;;
45694;SDS011;31408;45.468;9.124;2023-07-29T14:41:48;5.50;;;2.70;;
45694;SDS011;31408;45.468;9.124;2023-07-29T14:44:14;3.55;;;2.20;;
45694;SDS011;31408;45.468;9.124;2023-07-29T14:46:39;3.35;;;1.85;;
45694;SDS011;31408;45.468;9.124;2023-07-29T14:49:05;2.85;;;1.85;;
45694;SDS011;31408;45.468;9.124;2023-07-29T14:51:30;8.15;;;1.75;;
45694;SDS011;31408;45.468;9.124;2023-07-29T14:53:56;5.18;;;2.10;;
45694;SDS011;31408;45.468;9.124;2023-07-29T14:56:21;7.38;;;2.60;;
45694;SDS011;31408;45.468;9.124;2023-07-29T14:58:47;4.43;;;1.75;;
45694;SDS011;31408;45.468;9.124;2023-07-29T15:01:14;4.00;;;2.42;;
45694;SDS011;31408;45.468;9.124;2023-07-29T15:03:39;3.70;;;1.95;;
45694;SDS011;31408;45.468;9.124;2023-07-29T15:06:05;3.55;;;2.22;;
45694;SDS011;31408;45.468;9.124;2023-07-29T15:08:30;3.40;;;2.08;;
45694;SDS011;31408;45.468;9.124;2023-07-29T15:10:56;4.10;;;2.20;;